sensor_id;sensor_type;location;lat;lon;timestamp;pressure;altitude;pressure_sealevel;temperature;humidity
1616;BME280;801;47.982;7.810;2023-07-08T00:01:57;98557.22;;;23.85;67.71
1616;BME280;801;47.982;7.810;2023-07-08T00:04:24;98560.19;;;23.80;69.12
1616;BME280;801;47.982;7.810;2023-07-08T00:06:51;98559.06;;;23.81;70.25
1616;BME280;801;47.982;7.810;2023-07-08T00:09:17;98568.44;;;23.68;69.17
1616;BME280;801;47.982;7.810;2023-07-08T00:11:44;98560.56;;;23.66;69.75
1616;BME280;801;47.982;7.810;2023-07-08T00:14:10;98547.50;;;23.75;69.49
1616;BME280;801;47.982;7.810;2023-07-08T00:16:38;98550.72;;;23.77;68.30
1616;BME280;801;47.982;7.810;2023-07-08T00:19:08;98547.50;;;23.75;67.79
1616;BME280;801;47.982;7.810;2023-07-08T00:21:35;98548.91;;;23.69;68.02
1616;BME280;801;47.982;7.810;2023-07-08T00:24:02;98541.13;;;23.71;68.55
1616;BME280;801;47.982;7.810;2023-07-08T00:26:29;98546.03;;;23.66;68.88
1616;BME280;801;47.982;7.810;2023-07-08T00:28:56;98537.28;;;23.60;70.30
1616;BME280;801;47.982;7.810;2023-07-08T00:31:23;98532.31;;;23.66;70.46
1616;BME280;801;47.982;7.810;2023-07-08T00:33:53;98535.41;;;23.64;69.50
1616;BME280;801;47.982;7.810;2023-07-08T00:36:22;98534.53;;;23.60;69.31
1616;BME280;801;47.982;7.810;2023-07-08T00:38:49;98538.09;;;23.48;70.67
1616;BME280;801;47.982;7.810;2023-07-08T00:41:18;98538.00;;;23.45;72.01
1616;BME280;801;47.982;7.810;2023-07-08T00:43:49;98539.38;;;23.38;72.46
1616;BME280;801;47.982;7.810;2023-07-08T00:46:28;98546.50;;;23.15;72.55
1616;BME280;801;47.982;7.810;2023-07-08T00:49:03;98553.22;;;23.17;73.17
1616;BME280;801;47.982;7.810;2023-07-08T00:51:35;98542.84;;;23.23;73.42
1616;BME280;801;47.982;7.810;2023-07-08T00:54:03;98545.13;;;23.21;74.59
1616;BME280;801;47.982;7.810;2023-07-08T00:56:32;98548.31;;;23.23;74.79
1616;BME280;801;47.982;7.810;2023-07-08T00:59:02;98548.31;;;23.23;75.80
1616;BME280;801;47.982;7.810;2023-07-08T01:01:32;98553.94;;;23.27;75.29
1616;BME280;801;47.982;7.810;2023-07-08T01:04:04;98560.00;;;23.20;76.79
1616;BME280;801;47.982;7.810;2023-07-08T01:06:34;98557.91;;;23.17;77.72
1616;BME280;801;47.982;7.810;2023-07-08T01:09:06;98558.50;;;23.23;77.25
1616;BME280;801;47.982;7.810;2023-07-08T01:11:36;98566.59;;;23.19;78.10
1616;BME280;801;47.982;7.810;2023-07-08T01:14:05;98565.22;;;23.13;78.84
1616;BME280;801;47.982;7.810;2023-07-08T01:16:33;98568.19;;;22.71;81.99
1616;BME280;801;47.982;7.810;2023-07-08T01:19:01;98569.09;;;22.63;83.85
1616;BME280;801;47.982;7.810;2023-07-08T01:21:31;98582.09;;;22.66;85.31
1616;BME280;801;47.982;7.810;2023-07-08T01:24:02;98578.00;;;22.59;85.74
1616;BME280;801;47.982;7.810;2023-07-08T01:26:31;98576.84;;;22.48;87.25
1616;BME280;801;47.982;7.810;2023-07-08T01:28:59;98584.59;;;22.58;87.78
1616;BME280;801;47.982;7.810;2023-07-08T01:31:26;98595.56;;;22.58;88.86
1616;BME280;801;47.982;7.810;2023-07-08T01:33:53;98598.88;;;22.64;87.67
1616;BME280;801;47.982;7.810;2023-07-08T01:36:20;98601.72;;;22.55;86.99
1616;BME280;801;47.982;7.810;2023-07-08T01:38:47;98607.31;;;22.59;88.56
1616;BME280;801;47.982;7.810;2023-07-08T01:41:16;98598.53;;;22.53;89.26
1616;BME280;801;47.982;7.810;2023-07-08T01:43:43;98596.69;;;22.57;89.63
1616;BME280;801;47.982;7.810;2023-07-08T01:46:12;98599.91;;;22.59;89.29
1616;BME280;801;47.982;7.810;2023-07-08T01:48:41;98595.56;;;22.58;88.97
1616;BME280;801;47.982;7.810;2023-07-08T01:51:11;98601.34;;;22.57;89.83
1616;BME280;801;47.982;7.810;2023-07-08T01:56:07;98605.22;;;22.44;89.06
1616;BME280;801;47.982;7.810;2023-07-08T01:58:35;98610.13;;;22.38;90.02
1616;BME280;801;47.982;7.810;2023-07-08T02:01:02;98591.41;;;22.40;90.10
1616;BME280;801;47.982;7.810;2023-07-08T02:03:29;98588.69;;;22.40;89.80
1616;BME280;801;47.982;7.810;2023-07-08T02:05:56;98590.41;;;22.45;88.37
1616;BME280;801;47.982;7.810;2023-07-08T02:08:22;98577.59;;;22.36;86.51
1616;BME280;801;47.982;7.810;2023-07-08T02:10:51;98585.91;;;22.28;85.01
1616;BME280;801;47.982;7.810;2023-07-08T02:13:18;98579.88;;;22.34;84.36
1616;BME280;801;47.982;7.810;2023-07-08T02:15:46;98595.97;;;22.36;83.13
1616;BME280;801;47.982;7.810;2023-07-08T02:18:12;98600.59;;;22.23;84.25
1616;BME280;801;47.982;7.810;2023-07-08T02:20:39;98607.97;;;21.89;86.64
1616;BME280;801;47.982;7.810;2023-07-08T02:23:05;98619.84;;;21.72;87.35
1616;BME280;801;47.982;7.810;2023-07-08T02:25:32;98637.56;;;21.87;87.20
1616;BME280;801;47.982;7.810;2023-07-08T02:27:58;98652.88;;;21.88;88.45
1616;BME280;801;47.982;7.810;2023-07-08T02:30:26;98660.34;;;22.00;91.50
1616;BME280;801;47.982;7.810;2023-07-08T02:32:54;98667.34;;;22.31;91.36
1616;BME280;801;47.982;7.810;2023-07-08T02:35:23;98669.09;;;22.48;91.06
1616;BME280;801;47.982;7.810;2023-07-08T02:37:51;98673.16;;;22.63;91.04
1616;BME280;801;47.982;7.810;2023-07-08T02:40:18;98669.81;;;22.57;91.71
1616;BME280;801;47.982;7.810;2023-07-08T02:42:44;98678.78;;;22.78;91.09
1616;BME280;801;47.982;7.810;2023-07-08T02:45:12;98690.28;;;22.72;90.81
1616;BME280;801;47.982;7.810;2023-07-08T02:47:39;98686.88;;;22.75;91.42
1616;BME280;801;47.982;7.810;2023-07-08T02:50:07;98688.47;;;22.76;90.68
1616;BME280;801;47.982;7.810;2023-07-08T02:52:34;98691.78;;;22.82;90.63
1616;BME280;801;47.982;7.810;2023-07-08T02:55:00;98693.50;;;22.86;90.47
1616;BME280;801;47.982;7.810;2023-07-08T02:57:27;98684.16;;;22.87;89.91
1616;BME280;801;47.982;7.810;2023-07-08T02:59:53;98690.78;;;22.86;89.50
1616;BME280;801;47.982;7.810;2023-07-08T03:02:21;98695.81;;;22.84;89.35
1616;BME280;801;47.982;7.810;2023-07-08T03:04:48;98694.25;;;22.95;88.94
1616;BME280;801;47.982;7.810;2023-07-08T03:07:16;98686.47;;;22.97;87.56
1616;BME280;801;47.982;7.810;2023-07-08T03:09:43;98686.81;;;22.96;87.29
1616;BME280;801;47.982;7.810;2023-07-08T03:12:10;98696.56;;;23.06;86.34
1616;BME280;801;47.982;7.810;2023-07-08T03:14:37;98699.53;;;23.00;85.56
1616;BME280;801;47.982;7.810;2023-07-08T03:17:04;98710.72;;;23.08;84.01
1616;BME280;801;47.982;7.810;2023-07-08T03:19:31;98719.75;;;23.20;82.98
1616;BME280;801;47.982;7.810;2023-07-08T03:21:58;98726.50;;;23.23;83.80
1616;BME280;801;47.982;7.810;2023-07-08T03:24:30;98734.81;;;22.69;89.88
1616;BME280;801;47.982;7.810;2023-07-08T03:26:57;98749.88;;;22.42;93.03
1616;BME280;801;47.982;7.810;2023-07-08T03:29:25;98766.53;;;22.28;94.66
1616;BME280;801;47.982;7.810;2023-07-08T03:31:52;98781.47;;;22.09;97.96
1616;BME280;801;47.982;7.810;2023-07-08T03:34:18;98780.78;;;21.91;100.00
1616;BME280;801;47.982;7.810;2023-07-08T03:36:46;98791.25;;;21.89;100.00
1616;BME280;801;47.982;7.810;2023-07-08T03:39:15;98800.81;;;22.04;100.00
1616;BME280;801;47.982;7.810;2023-07-08T03:41:44;98809.50;;;22.06;100.00
1616;BME280;801;47.982;7.810;2023-07-08T03:44:10;98814.31;;;22.09;100.00
1616;BME280;801;47.982;7.810;2023-07-08T03:46:37;98813.50;;;22.09;100.00
1616;BME280;801;47.982;7.810;2023-07-08T03:49:05;98823.56;;;22.26;100.00
1616;BME280;801;47.982;7.810;2023-07-08T03:51:33;98828.38;;;22.29;100.00
1616;BME280;801;47.982;7.810;2023-07-08T03:54:01;98832.25;;;22.28;100.00
1616;BME280;801;47.982;7.810;2023-07-08T03:56:27;98857.72;;;22.20;100.00
1616;BME280;801;47.982;7.810;2023-07-08T03:58:55;98849.69;;;22.14;100.00
1616;BME280;801;47.982;7.810;2023-07-08T04:01:24;98843.72;;;22.12;100.00
1616;BME280;801;47.982;7.810;2023-07-08T04:03:52;98866.09;;;22.14;100.00
1616;BME280;801;47.982;7.810;2023-07-08T04:06:20;98877.56;;;22.08;100.00
1616;BME280;801;47.982;7.810;2023-07-08T04:08:46;98881.97;;;22.00;100.00
1616;BME280;801;47.982;7.810;2023-07-08T04:11:15;98846.94;;;21.85;100.00
1616;BME280;801;47.982;7.810;2023-07-08T04:13:42;98854.44;;;21.58;100.00
1616;BME280;801;47.982;7.810;2023-07-08T04:16:16;98841.13;;;21.39;100.00
1616;BME280;801;47.982;7.810;2023-07-08T04:18:43;98822.72;;;21.10;100.00
1616;BME280;801;47.982;7.810;2023-07-08T04:21:09;98813.88;;;21.04;100.00
1616;BME280;801;47.982;7.810;2023-07-08T04:23:36;98850.06;;;20.92;100.00
1616;BME280;801;47.982;7.810;2023-07-08T04:26:03;98861.13;;;20.96;100.00
1616;BME280;801;47.982;7.810;2023-07-08T04:28:29;98883.13;;;20.65;100.00
1616;BME280;801;47.982;7.810;2023-07-08T04:30:56;98878.09;;;20.49;100.00
1616;BME280;801;47.982;7.810;2023-07-08T04:33:23;98886.41;;;20.36;100.00
1616;BME280;801;47.982;7.810;2023-07-08T04:35:50;98882.59;;;20.37;100.00
1616;BME280;801;47.982;7.810;2023-07-08T04:38:18;98884.31;;;20.24;100.00
1616;BME280;801;47.982;7.810;2023-07-08T04:40:46;98867.59;;;20.17;100.00
1616;BME280;801;47.982;7.810;2023-07-08T04:43:13;98868.88;;;20.10;100.00
1616;BME280;801;47.982;7.810;2023-07-08T04:45:41;98862.72;;;19.96;100.00
1616;BME280;801;47.982;7.810;2023-07-08T04:48:11;98853.22;;;19.85;100.00
1616;BME280;801;47.982;7.810;2023-07-08T04:50:42;98845.50;;;19.87;100.00
1616;BME280;801;47.982;7.810;2023-07-08T04:53:09;98868.59;;;19.81;100.00
1616;BME280;801;47.982;7.810;2023-07-08T04:55:38;98873.91;;;19.86;100.00
1616;BME280;801;47.982;7.810;2023-07-08T04:58:05;98890.63;;;19.93;100.00
1616;BME280;801;47.982;7.810;2023-07-08T05:00:32;98923.09;;;20.03;100.00
1616;BME280;801;47.982;7.810;2023-07-08T05:02:58;98924.47;;;19.92;100.00
1616;BME280;801;47.982;7.810;2023-07-08T05:05:25;98941.88;;;19.74;100.00
1616;BME280;801;47.982;7.810;2023-07-08T05:07:53;98954.59;;;19.64;100.00
1616;BME280;801;47.982;7.810;2023-07-08T05:10:20;98952.81;;;19.60;100.00
1616;BME280;801;47.982;7.810;2023-07-08T05:12:46;98944.75;;;19.55;100.00
1616;BME280;801;47.982;7.810;2023-07-08T05:15:14;98933.81;;;19.23;100.00
1616;BME280;801;47.982;7.810;2023-07-08T05:17:41;98921.19;;;19.05;100.00
1616;BME280;801;47.982;7.810;2023-07-08T05:20:09;98904.25;;;18.94;100.00
1616;BME280;801;47.982;7.810;2023-07-08T05:22:36;98881.28;;;18.86;100.00
1616;BME280;801;47.982;7.810;2023-07-08T05:25:05;98857.28;;;18.88;100.00
1616;BME280;801;47.982;7.810;2023-07-08T05:27:32;98840.28;;;19.05;100.00
1616;BME280;801;47.982;7.810;2023-07-08T05:29:59;98839.69;;;19.17;100.00
1616;BME280;801;47.982;7.810;2023-07-08T05:32:26;98828.50;;;19.19;100.00
1616;BME280;801;47.982;7.810;2023-07-08T05:34:53;98828.69;;;19.22;100.00
1616;BME280;801;47.982;7.810;2023-07-08T05:37:20;98800.91;;;19.12;100.00
1616;BME280;801;47.982;7.810;2023-07-08T05:39:50;98791.28;;;19.14;100.00
1616;BME280;801;47.982;7.810;2023-07-08T05:42:18;98791.34;;;19.23;100.00
1616;BME280;801;47.982;7.810;2023-07-08T05:44:44;98792.69;;;19.34;100.00
1616;BME280;801;47.982;7.810;2023-07-08T05:47:12;98791.59;;;19.44;100.00
1616;BME280;801;47.982;7.810;2023-07-08T05:49:39;98800.81;;;19.57;100.00
1616;BME280;801;47.982;7.810;2023-07-08T05:52:09;98800.56;;;19.44;100.00
1616;BME280;801;47.982;7.810;2023-07-08T05:54:37;98795.34;;;19.97;100.00
1616;BME280;801;47.982;7.810;2023-07-08T05:57:04;98787.28;;;19.74;100.00
1616;BME280;801;47.982;7.810;2023-07-08T05:59:33;98772.09;;;19.59;100.00
1616;BME280;801;47.982;7.810;2023-07-08T06:02:00;98754.09;;;19.41;100.00
1616;BME280;801;47.982;7.810;2023-07-08T06:04:29;98730.03;;;20.00;100.00
1616;BME280;801;47.982;7.810;2023-07-08T06:06:56;98713.88;;;20.30;100.00
1616;BME280;801;47.982;7.810;2023-07-08T06:09:22;98694.28;;;20.37;100.00
1616;BME280;801;47.982;7.810;2023-07-08T06:11:49;98702.63;;;20.23;100.00
1616;BME280;801;47.982;7.810;2023-07-08T06:14:15;98713.69;;;20.26;100.00
1616;BME280;801;47.982;7.810;2023-07-08T06:16:43;98730.72;;;20.32;100.00
1616;BME280;801;47.982;7.810;2023-07-08T06:19:10;98751.25;;;20.38;100.00
1616;BME280;801;47.982;7.810;2023-07-08T06:21:37;98753.84;;;20.52;100.00
1616;BME280;801;47.982;7.810;2023-07-08T06:24:04;98765.06;;;20.42;100.00
1616;BME280;801;47.982;7.810;2023-07-08T06:26:31;98768.72;;;20.02;100.00
1616;BME280;801;47.982;7.810;2023-07-08T06:28:57;98767.75;;;20.16;100.00
1616;BME280;801;47.982;7.810;2023-07-08T06:31:24;98752.03;;;20.13;100.00
1616;BME280;801;47.982;7.810;2023-07-08T06:33:51;98742.72;;;19.96;100.00
1616;BME280;801;47.982;7.810;2023-07-08T06:36:18;98743.56;;;20.14;100.00
1616;BME280;801;47.982;7.810;2023-07-08T06:38:45;98742.75;;;20.31;100.00
1616;BME280;801;47.982;7.810;2023-07-08T06:41:11;98737.59;;;20.47;100.00
1616;BME280;801;47.982;7.810;2023-07-08T06:43:37;98736.63;;;20.51;100.00
1616;BME280;801;47.982;7.810;2023-07-08T06:46:04;98735.69;;;20.47;100.00
1616;BME280;801;47.982;7.810;2023-07-08T06:48:31;98737.59;;;20.38;100.00
1616;BME280;801;47.982;7.810;2023-07-08T06:50:59;98746.56;;;20.56;100.00
1616;BME280;801;47.982;7.810;2023-07-08T06:53:25;98755.94;;;20.64;100.00
1616;BME280;801;47.982;7.810;2023-07-08T06:55:52;98766.06;;;20.72;100.00
1616;BME280;801;47.982;7.810;2023-07-08T06:58:18;98769.09;;;20.79;100.00
1616;BME280;801;47.982;7.810;2023-07-08T07:00:45;98784.63;;;20.87;100.00
1616;BME280;801;47.982;7.810;2023-07-08T07:03:12;98792.72;;;20.66;100.00
1616;BME280;801;47.982;7.810;2023-07-08T07:05:38;98804.88;;;20.51;100.00
1616;BME280;801;47.982;7.810;2023-07-08T07:08:06;98806.97;;;20.37;100.00
1616;BME280;801;47.982;7.810;2023-07-08T07:10:33;98814.50;;;20.31;100.00
1616;BME280;801;47.982;7.810;2023-07-08T07:12:59;98818.19;;;20.44;100.00
1616;BME280;801;47.982;7.810;2023-07-08T07:15:26;98815.97;;;20.46;100.00
1616;BME280;801;47.982;7.810;2023-07-08T07:17:55;98807.50;;;20.65;100.00
1616;BME280;801;47.982;7.810;2023-07-08T07:20:22;98810.19;;;20.83;100.00
1616;BME280;801;47.982;7.810;2023-07-08T07:22:49;98832.53;;;20.85;100.00
1616;BME280;801;47.982;7.810;2023-07-08T07:25:18;98836.03;;;21.11;100.00
1616;BME280;801;47.982;7.810;2023-07-08T07:27:44;98850.84;;;20.93;100.00
1616;BME280;801;47.982;7.810;2023-07-08T07:30:12;98846.97;;;21.11;100.00
1616;BME280;801;47.982;7.810;2023-07-08T07:32:40;98834.25;;;21.24;100.00
1616;BME280;801;47.982;7.810;2023-07-08T07:35:08;98842.09;;;21.43;100.00
1616;BME280;801;47.982;7.810;2023-07-08T07:37:38;98850.28;;;21.52;100.00
1616;BME280;801;47.982;7.810;2023-07-08T07:40:06;98860.72;;;21.59;100.00
1616;BME280;801;47.982;7.810;2023-07-08T07:42:39;98860.38;;;21.60;100.00
1616;BME280;801;47.982;7.810;2023-07-08T07:45:06;98864.22;;;21.68;100.00
1616;BME280;801;47.982;7.810;2023-07-08T07:47:33;98866.78;;;21.73;100.00
1616;BME280;801;47.982;7.810;2023-07-08T07:50:00;98855.19;;;21.76;100.00
1616;BME280;801;47.982;7.810;2023-07-08T07:52:27;98864.38;;;21.71;100.00
1616;BME280;801;47.982;7.810;2023-07-08T07:54:54;98858.22;;;21.74;100.00
1616;BME280;801;47.982;7.810;2023-07-08T07:57:20;98868.16;;;21.88;100.00
1616;BME280;801;47.982;7.810;2023-07-08T07:59:49;98869.97;;;22.13;100.00
1616;BME280;801;47.982;7.810;2023-07-08T08:02:15;98879.97;;;22.09;100.00
1616;BME280;801;47.982;7.810;2023-07-08T08:04:42;98877.50;;;22.25;100.00
1616;BME280;801;47.982;7.810;2023-07-08T08:07:09;98878.78;;;22.28;100.00
1616;BME280;801;47.982;7.810;2023-07-08T08:09:35;98879.47;;;22.16;100.00
1616;BME280;801;47.982;7.810;2023-07-08T08:12:03;98882.03;;;22.12;100.00
1616;BME280;801;47.982;7.810;2023-07-08T08:14:30;98893.34;;;22.11;100.00
1616;BME280;801;47.982;7.810;2023-07-08T08:16:58;98896.69;;;22.16;100.00
1616;BME280;801;47.982;7.810;2023-07-08T08:19:24;98897.78;;;22.33;100.00
1616;BME280;801;47.982;7.810;2023-07-08T08:21:51;98889.25;;;22.26;100.00
1616;BME280;801;47.982;7.810;2023-07-08T08:24:17;98892.81;;;22.26;100.00
1616;BME280;801;47.982;7.810;2023-07-08T08:26:44;98898.25;;;22.35;100.00
1616;BME280;801;47.982;7.810;2023-07-08T08:29:11;98895.88;;;22.25;100.00
1616;BME280;801;47.982;7.810;2023-07-08T08:31:38;98888.41;;;22.34;100.00
1616;BME280;801;47.982;7.810;2023-07-08T08:34:06;98883.94;;;22.50;100.00
1616;BME280;801;47.982;7.810;2023-07-08T08:36:32;98889.19;;;22.85;100.00
1616;BME280;801;47.982;7.810;2023-07-08T08:38:59;98884.72;;;23.02;100.00
1616;BME280;801;47.982;7.810;2023-07-08T08:41:29;98883.84;;;23.10;100.00
1616;BME280;801;47.982;7.810;2023-07-08T08:43:56;98877.06;;;23.28;100.00
1616;BME280;801;47.982;7.810;2023-07-08T08:46:32;98881.44;;;23.41;100.00
1616;BME280;801;47.982;7.810;2023-07-08T08:49:08;98873.19;;;23.75;100.00
1616;BME280;801;47.982;7.810;2023-07-08T08:51:42;98879.97;;;24.02;100.00
1616;BME280;801;47.982;7.810;2023-07-08T08:54:09;98875.03;;;24.20;100.00
1616;BME280;801;47.982;7.810;2023-07-08T08:56:39;98869.66;;;24.23;100.00
1616;BME280;801;47.982;7.810;2023-07-08T08:59:20;98870.69;;;24.43;100.00
1616;BME280;801;47.982;7.810;2023-07-08T09:01:50;98872.63;;;24.43;100.00
1616;BME280;801;47.982;7.810;2023-07-08T09:04:22;98870.69;;;24.56;100.00
1616;BME280;801;47.982;7.810;2023-07-08T09:06:51;98867.78;;;24.64;100.00
1616;BME280;801;47.982;7.810;2023-07-08T09:09:31;98865.28;;;24.72;100.00
1616;BME280;801;47.982;7.810;2023-07-08T09:12:03;98869.28;;;24.74;100.00
1616;BME280;801;47.982;7.810;2023-07-08T09:14:32;98867.03;;;24.92;100.00
1616;BME280;801;47.982;7.810;2023-07-08T09:17:14;98857.94;;;25.04;100.00
1616;BME280;801;47.982;7.810;2023-07-08T09:19:44;98871.09;;;25.11;100.00
1616;BME280;801;47.982;7.810;2023-07-08T09:22:15;98861.41;;;25.01;100.00
1616;BME280;801;47.982;7.810;2023-07-08T09:24:45;98860.41;;;25.21;100.00
1616;BME280;801;47.982;7.810;2023-07-08T09:27:14;98862.41;;;25.37;100.00
1616;BME280;801;47.982;7.810;2023-07-08T09:29:41;98863.31;;;25.41;100.00
1616;BME280;801;47.982;7.810;2023-07-08T09:32:15;98861.59;;;25.36;100.00
1616;BME280;801;47.982;7.810;2023-07-08T09:34:46;98854.06;;;25.65;100.00
1616;BME280;801;47.982;7.810;2023-07-08T09:37:24;98856.94;;;25.84;100.00
1616;BME280;801;47.982;7.810;2023-07-08T09:39:52;98863.00;;;26.06;100.00
1616;BME280;801;47.982;7.810;2023-07-08T09:42:19;98860.28;;;26.25;100.00
1616;BME280;801;47.982;7.810;2023-07-08T09:44:47;98865.63;;;26.18;100.00
1616;BME280;801;47.982;7.810;2023-07-08T09:47:21;98860.75;;;26.12;100.00
1616;BME280;801;47.982;7.810;2023-07-08T09:49:51;98853.47;;;25.87;100.00
1616;BME280;801;47.982;7.810;2023-07-08T09:52:18;98860.13;;;25.86;100.00
1616;BME280;801;47.982;7.810;2023-07-08T09:54:45;98860.75;;;26.12;100.00
1616;BME280;801;47.982;7.810;2023-07-08T09:57:21;98855.88;;;26.05;100.00
1616;BME280;801;47.982;7.810;2023-07-08T09:59:53;98854.91;;;25.81;100.00
1616;BME280;801;47.982;7.810;2023-07-08T10:02:26;98846.38;;;25.86;100.00
1616;BME280;801;47.982;7.810;2023-07-08T10:04:57;98853.94;;;25.89;100.00
1616;BME280;801;47.982;7.810;2023-07-08T10:07:28;98856.47;;;25.82;100.00
1616;BME280;801;47.982;7.810;2023-07-08T10:09:57;98861.38;;;26.05;100.00
1616;BME280;801;47.982;7.810;2023-07-08T10:12:24;98862.38;;;25.97;100.00
1616;BME280;801;47.982;7.810;2023-07-08T10:14:52;98860.13;;;26.18;100.00
1616;BME280;801;47.982;7.810;2023-07-08T10:17:21;98858.63;;;26.56;100.00
1616;BME280;801;47.982;7.810;2023-07-08T10:19:48;98864.28;;;26.63;100.00
1616;BME280;801;47.982;7.810;2023-07-08T10:22:25;98857.94;;;26.43;100.00
1616;BME280;801;47.982;7.810;2023-07-08T10:27:51;98865.19;;;27.06;100.00
1616;BME280;801;47.982;7.810;2023-07-08T10:30:25;98858.94;;;27.09;100.00
1616;BME280;801;47.982;7.810;2023-07-08T10:35:48;98861.69;;;27.09;100.00
1616;BME280;801;47.982;7.810;2023-07-08T10:38:28;98851.38;;;27.68;100.00
1616;BME280;801;47.982;7.810;2023-07-08T10:41:01;98849.66;;;27.60;100.00
1616;BME280;801;47.982;7.810;2023-07-08T10:43:44;98854.00;;;28.07;100.00
1616;BME280;801;47.982;7.810;2023-07-08T10:46:21;98850.41;;;27.80;97.75
1616;BME280;801;47.982;7.810;2023-07-08T10:49:06;98850.59;;;28.18;99.23
1616;BME280;801;47.982;7.810;2023-07-08T10:51:44;98857.78;;;28.22;91.89
1616;BME280;801;47.982;7.810;2023-07-08T10:54:28;98857.13;;;27.83;94.14
1616;BME280;801;47.982;7.810;2023-07-08T10:57:02;98858.94;;;27.94;92.36
1616;BME280;801;47.982;7.810;2023-07-08T10:59:43;98853.38;;;27.91;90.39
1616;BME280;801;47.982;7.810;2023-07-08T11:02:25;98850.38;;;28.03;90.95
1616;BME280;801;47.982;7.810;2023-07-08T11:05:05;98849.78;;;28.13;87.65
1616;BME280;801;47.982;7.810;2023-07-08T11:07:39;98857.78;;;28.49;88.87
1616;BME280;801;47.982;7.810;2023-07-08T11:10:16;98852.78;;;28.31;86.08
1616;BME280;801;47.982;7.810;2023-07-08T11:12:46;98858.06;;;28.67;82.81
1616;BME280;801;47.982;7.810;2023-07-08T11:15:17;98858.84;;;28.67;82.90
1616;BME280;801;47.982;7.810;2023-07-08T11:17:49;98852.75;;;28.54;83.21
1616;BME280;801;47.982;7.810;2023-07-08T11:20:20;98849.03;;;28.73;82.64
1616;BME280;801;47.982;7.810;2023-07-08T11:22:51;98854.91;;;29.36;79.46
1616;BME280;801;47.982;7.810;2023-07-08T11:25:21;98853.84;;;29.48;77.07
1616;BME280;801;47.982;7.810;2023-07-08T11:27:53;98853.78;;;29.07;75.18
1616;BME280;801;47.982;7.810;2023-07-08T11:30:23;98858.50;;;29.06;71.88
1616;BME280;801;47.982;7.810;2023-07-08T11:32:57;98855.59;;;28.92;76.12
1616;BME280;801;47.982;7.810;2023-07-08T11:35:33;98857.25;;;29.00;74.90
1616;BME280;801;47.982;7.810;2023-07-08T11:38:01;98853.34;;;29.05;74.80
1616;BME280;801;47.982;7.810;2023-07-08T11:40:31;98843.38;;;29.30;75.92
1616;BME280;801;47.982;7.810;2023-07-08T11:43:05;98850.31;;;29.13;71.05
1616;BME280;801;47.982;7.810;2023-07-08T11:45:33;98846.94;;;29.27;68.82
1616;BME280;801;47.982;7.810;2023-07-08T11:48:06;98843.28;;;29.20;69.32
1616;BME280;801;47.982;7.810;2023-07-08T11:50:38;98845.09;;;29.42;70.75
1616;BME280;801;47.982;7.810;2023-07-08T11:53:08;98843.50;;;29.82;67.16
1616;BME280;801;47.982;7.810;2023-07-08T11:55:43;98842.13;;;30.10;65.32
1616;BME280;801;47.982;7.810;2023-07-08T11:58:21;98837.19;;;29.44;65.34
1616;BME280;801;47.982;7.810;2023-07-08T12:00:57;98835.75;;;29.57;65.83
1616;BME280;801;47.982;7.810;2023-07-08T12:03:32;98836.28;;;29.74;65.43
1616;BME280;801;47.982;7.810;2023-07-08T12:06:00;98845.38;;;29.71;63.04
1616;BME280;801;47.982;7.810;2023-07-08T12:08:35;98841.63;;;29.52;63.69
1616;BME280;801;47.982;7.810;2023-07-08T12:11:10;98840.69;;;29.37;65.40
1616;BME280;801;47.982;7.810;2023-07-08T12:13:37;98832.00;;;29.80;67.47
1616;BME280;801;47.982;7.810;2023-07-08T12:16:08;98835.69;;;29.50;64.65
1616;BME280;801;47.982;7.810;2023-07-08T12:18:38;98842.06;;;29.54;63.38
1616;BME280;801;47.982;7.810;2023-07-08T12:21:11;98837.34;;;29.62;61.81
1616;BME280;801;47.982;7.810;2023-07-08T12:23:44;98831.84;;;30.10;62.02
1616;BME280;801;47.982;7.810;2023-07-08T12:26:12;98830.06;;;30.39;57.46
1616;BME280;801;47.982;7.810;2023-07-08T12:28:39;98831.03;;;30.76;55.96
1616;BME280;801;47.982;7.810;2023-07-08T12:31:10;98833.34;;;30.63;56.23
1616;BME280;801;47.982;7.810;2023-07-08T12:33:39;98828.59;;;30.64;54.53
1616;BME280;801;47.982;7.810;2023-07-08T12:36:10;98825.03;;;30.59;55.30
1616;BME280;801;47.982;7.810;2023-07-08T12:38:41;98828.25;;;30.72;55.10
1616;BME280;801;47.982;7.810;2023-07-08T12:41:13;98821.53;;;30.80;54.24
1616;BME280;801;47.982;7.810;2023-07-08T12:43:40;98831.03;;;30.79;55.35
1616;BME280;801;47.982;7.810;2023-07-08T12:46:08;98820.41;;;30.92;53.72
1616;BME280;801;47.982;7.810;2023-07-08T12:48:36;98834.38;;;31.17;50.62
1616;BME280;801;47.982;7.810;2023-07-08T12:51:03;98833.53;;;31.06;50.72
1616;BME280;801;47.982;7.810;2023-07-08T12:53:30;98837.50;;;31.05;50.09
1616;BME280;801;47.982;7.810;2023-07-08T12:55:59;98831.50;;;30.89;50.62
1616;BME280;801;47.982;7.810;2023-07-08T12:58:31;98826.03;;;31.14;52.58
1616;BME280;801;47.982;7.810;2023-07-08T13:01:01;98820.91;;;31.37;50.18
1616;BME280;801;47.982;7.810;2023-07-08T13:03:30;98824.03;;;31.14;52.14
1616;BME280;801;47.982;7.810;2023-07-08T13:05:59;98817.72;;;31.24;50.66
1616;BME280;801;47.982;7.810;2023-07-08T13:08:30;98815.75;;;31.21;52.04
1616;BME280;801;47.982;7.810;2023-07-08T13:11:01;98817.75;;;31.28;52.29
1616;BME280;801;47.982;7.810;2023-07-08T13:13:32;98815.28;;;31.05;52.88
1616;BME280;801;47.982;7.810;2023-07-08T13:16:01;98817.63;;;30.92;52.09
1616;BME280;801;47.982;7.810;2023-07-08T13:18:33;98814.94;;;31.17;46.62
1616;BME280;801;47.982;7.810;2023-07-08T13:21:00;98819.38;;;31.47;46.98
1616;BME280;801;47.982;7.810;2023-07-08T13:23:28;98809.88;;;31.98;46.81
1616;BME280;801;47.982;7.810;2023-07-08T13:25:55;98809.06;;;31.62;41.73
1616;BME280;801;47.982;7.810;2023-07-08T13:28:24;98806.69;;;31.60;42.34
1616;BME280;801;47.982;7.810;2023-07-08T13:30:54;98812.25;;;31.71;42.22
1616;BME280;801;47.982;7.810;2023-07-08T13:33:21;98801.50;;;31.91;43.93
1616;BME280;801;47.982;7.810;2023-07-08T13:35:48;98795.94;;;31.91;40.92
1616;BME280;801;47.982;7.810;2023-07-08T13:38:16;98795.13;;;32.23;41.42
1616;BME280;801;47.982;7.810;2023-07-08T13:40:45;98801.41;;;32.56;39.32
1616;BME280;801;47.982;7.810;2023-07-08T13:43:13;98792.34;;;32.26;38.37
1616;BME280;801;47.982;7.810;2023-07-08T13:45:44;98800.41;;;32.95;39.38